createdAt,value
2022-11-08T02:01:24.768Z,100.00
2022-11-08T02:03:53.138Z,100.00
2022-11-08T02:06:21.100Z,100.00
2022-11-08T02:08:49.495Z,100.00
2022-11-08T02:11:18.925Z,100.00
2022-11-08T02:13:46.980Z,100.00
2022-11-08T02:16:16.800Z,100.00
2022-11-08T02:18:48.918Z,100.00
2022-11-08T02:21:26.617Z,100.00
2022-11-08T02:23:59.418Z,100.00
2022-11-08T02:26:32.780Z,100.00
2022-11-08T02:29:26.173Z,100.00
2022-11-08T02:31:55.159Z,100.00
2022-11-08T02:34:29.349Z,100.00
2022-11-08T02:36:58.084Z,100.00
2022-11-08T02:39:28.728Z,100.00
2022-11-08T02:41:56.478Z,100.00
2022-11-08T02:44:24.491Z,100.00
2022-11-08T02:46:52.404Z,99.69
2022-11-08T02:49:20.291Z,99.92
2022-11-08T02:51:48.301Z,100.00
2022-11-08T02:54:16.060Z,99.72
2022-11-08T02:56:45.317Z,100.00
2022-11-08T02:59:13.244Z,100.00
2022-11-08T03:01:41.268Z,100.00
2022-11-08T03:04:09.346Z,100.00
2022-11-08T03:06:37.542Z,100.00
2022-11-08T03:09:05.932Z,100.00
2022-11-08T03:11:33.693Z,100.00
2022-11-08T03:14:03.048Z,100.00
2022-11-08T03:16:31.167Z,100.00
2022-11-08T03:18:58.935Z,100.00
2022-11-08T03:21:27.685Z,100.00
2022-11-08T03:23:55.725Z,100.00
2022-11-08T03:26:23.628Z,100.00
2022-11-08T03:28:51.388Z,100.00
2022-11-08T03:31:20.614Z,100.00
2022-11-08T03:33:48.422Z,100.00
2022-11-08T03:36:16.268Z,100.00
2022-11-08T03:38:44.075Z,100.00
2022-11-08T03:41:11.851Z,100.00
2022-11-08T03:43:39.656Z,100.00
2022-11-08T03:46:07.434Z,100.00
2022-11-08T03:48:36.816Z,100.00
2022-11-08T03:51:04.949Z,100.00
2022-11-08T03:53:32.774Z,100.00
2022-11-08T03:56:01.009Z,100.00
2022-11-08T03:58:29.021Z,100.00
2022-11-08T04:00:58.200Z,100.00
2022-11-08T04:03:26.112Z,100.00
2022-11-08T04:05:56.086Z,100.00
2022-11-08T04:08:23.836Z,100.00
2022-11-08T04:10:54.764Z,100.00
2022-11-08T04:13:41.877Z,100.00
2022-11-08T04:16:12.762Z,100.00
2022-11-08T04:19:03.355Z,100.00
2022-11-08T04:21:32.520Z,100.00
2022-11-08T04:24:00.326Z,100.00
2022-11-08T04:26:28.095Z,100.00
2022-11-08T04:28:55.959Z,100.00
2022-11-08T04:31:23.918Z,100.00
2022-11-08T04:33:52.059Z,100.00
2022-11-08T04:36:20.123Z,100.00
2022-11-08T04:38:50.556Z,100.00
2022-11-08T04:41:21.922Z,100.00
2022-11-08T04:43:51.542Z,100.00
2022-11-08T04:46:21.670Z,100.00
2022-11-08T04:48:52.120Z,100.00
2022-11-08T04:51:23.466Z,100.00
2022-11-08T04:53:54.407Z,100.00
2022-11-08T04:56:22.490Z,100.00
2022-11-08T04:58:53.037Z,100.00
2022-11-08T05:01:23.333Z,100.00
2022-11-08T05:03:53.341Z,100.00
2022-11-08T05:06:23.708Z,100.00
2022-11-08T05:08:55.310Z,100.00
2022-11-08T05:11:25.519Z,100.00
2022-11-08T05:13:53.706Z,100.00
2022-11-08T05:16:24.748Z,100.00
2022-11-08T05:18:53.526Z,100.00
2022-11-08T05:21:41.229Z,100.00
2022-11-08T05:24:13.789Z,100.00
2022-11-08T05:26:45.650Z,100.00
2022-11-08T05:29:15.760Z,100.00
2022-11-08T05:31:44.052Z,100.00
2022-11-08T05:34:11.845Z,100.00
2022-11-08T05:36:39.605Z,100.00
2022-11-08T05:39:07.404Z,100.00
2022-11-08T05:41:36.558Z,100.00
2022-11-08T05:44:04.524Z,100.00
2022-11-08T05:46:33.781Z,100.00
2022-11-08T05:49:01.768Z,100.00
2022-11-08T05:51:29.537Z,100.00
2022-11-08T05:53:57.458Z,100.00
2022-11-08T05:56:25.356Z,100.00
2022-11-08T05:58:54.468Z,100.00
2022-11-08T06:01:22.264Z,100.00
2022-11-08T06:03:50.755Z,100.00
2022-11-08T06:06:21.693Z,100.00
2022-11-08T06:08:51.799Z,100.00
2022-11-08T06:11:24.789Z,100.00
2022-11-08T06:13:55.717Z,100.00
2022-11-08T06:16:25.186Z,100.00
2022-11-08T06:18:53.357Z,99.87
2022-11-08T06:21:22.288Z,100.00
2022-11-08T06:23:53.667Z,100.00
2022-11-08T06:26:22.433Z,100.00
2022-11-08T06:28:50.638Z,100.00
2022-11-08T06:31:19.855Z,99.57
2022-11-08T06:33:47.854Z,100.00
2022-11-08T06:36:15.935Z,99.99
2022-11-08T06:38:43.749Z,99.86
2022-11-08T06:41:19.184Z,99.86
2022-11-08T06:43:47.050Z,99.85
2022-11-08T06:46:15.457Z,100.00
2022-11-08T06:48:44.901Z,99.79
2022-11-08T06:51:13.166Z,99.78
2022-11-08T06:53:40.966Z,99.00
2022-11-08T06:56:09.850Z,99.28
2022-11-08T06:58:38.222Z,97.71
2022-11-08T07:01:09.118Z,97.99
2022-11-08T07:03:36.985Z,97.27
2022-11-08T07:06:07.784Z,97.22
2022-11-08T07:08:36.199Z,96.61
2022-11-08T07:11:04.749Z,96.27
2022-11-08T07:13:32.712Z,95.19
2022-11-08T07:16:01.182Z,94.46
2022-11-08T07:18:29.151Z,93.45
2022-11-08T07:21:01.313Z,92.72
2022-11-08T07:23:30.700Z,92.01
2022-11-08T07:26:02.434Z,91.69
2022-11-08T07:28:31.125Z,91.93
2022-11-08T07:31:04.769Z,91.14
2022-11-08T07:33:33.256Z,89.75
2022-11-08T07:36:01.497Z,90.32
2022-11-08T07:38:30.954Z,89.12
2022-11-08T07:41:01.289Z,88.39
2022-11-08T07:43:30.056Z,89.13
2022-11-08T07:46:05.372Z,88.75
2022-11-08T07:48:33.236Z,86.99
2022-11-08T07:51:01.069Z,86.65
2022-11-08T07:53:30.720Z,87.45
2022-11-08T07:55:58.575Z,85.21
2022-11-08T07:58:26.606Z,85.84
2022-11-08T08:01:01.838Z,84.84
2022-11-08T08:03:30.769Z,84.73
2022-11-08T08:06:01.347Z,84.04
2022-11-08T08:08:30.861Z,84.05
2022-11-08T08:11:00.318Z,82.65
2022-11-08T08:13:28.592Z,82.59
2022-11-08T08:15:59.635Z,82.55
2022-11-08T08:18:27.899Z,81.35
2022-11-08T08:20:55.764Z,80.91
2022-11-08T08:23:23.992Z,81.27
2022-11-08T08:25:53.320Z,80.29
2022-11-08T08:28:21.270Z,80.44
2022-11-08T08:30:49.076Z,80.01
2022-11-08T08:33:33.731Z,78.98
2022-11-08T08:36:01.971Z,78.34
2022-11-08T08:38:30.645Z,78.23
2022-11-08T08:41:01.099Z,77.32
2022-11-08T08:43:32.532Z,77.45
2022-11-08T08:46:01.884Z,76.66
2022-11-08T08:48:30.153Z,76.18
2022-11-08T08:50:58.664Z,76.61
2022-11-08T08:53:27.029Z,74.59
2022-11-08T08:55:55.033Z,74.20
2022-11-08T08:58:24.342Z,73.78
2022-11-08T09:03:40.042Z,72.56
2022-11-08T09:06:08.302Z,72.06
2022-11-08T09:08:36.431Z,71.09
2022-11-08T09:11:04.561Z,71.16
2022-11-08T09:13:33.913Z,70.09
2022-11-08T09:16:03.441Z,69.95
2022-11-08T09:18:32.166Z,69.05
2022-11-08T09:21:01.424Z,69.55
2022-11-08T09:23:29.167Z,67.93
2022-11-08T09:25:58.115Z,67.50
2022-11-08T09:28:30.993Z,67.56
2022-11-08T09:31:03.629Z,68.16
2022-11-08T09:33:31.553Z,67.31
2022-11-08T09:36:00.807Z,66.97
2022-11-08T09:38:29.064Z,65.55
2022-11-08T09:41:26.832Z,65.48
2022-11-08T09:44:18.628Z,65.15
2022-11-08T09:46:52.936Z,64.19
2022-11-08T09:49:29.737Z,63.23
2022-11-08T09:52:00.269Z,63.64
2022-11-08T09:54:38.823Z,62.32
2022-11-08T09:57:16.675Z,61.25
2022-11-08T09:59:50.918Z,59.70
2022-11-08T10:02:23.634Z,59.72
2022-11-08T10:04:58.309Z,60.05
2022-11-08T10:07:39.040Z,58.32
2022-11-08T10:10:48.462Z,55.96
2022-11-08T10:13:32.963Z,55.70
2022-11-08T10:16:12.100Z,53.92
2022-11-08T10:19:24.412Z,52.46
2022-11-08T10:22:02.212Z,51.99
2022-11-08T10:24:35.491Z,52.73
2022-11-08T10:27:13.457Z,49.43
2022-11-08T10:29:45.644Z,50.86
2022-11-08T10:32:21.365Z,50.04
2022-11-08T10:35:02.401Z,50.03
2022-11-08T10:37:33.453Z,48.63
2022-11-08T10:40:13.911Z,50.09
2022-11-08T10:42:50.374Z,49.41
2022-11-08T10:45:18.363Z,50.16
2022-11-08T10:47:47.148Z,49.30
2022-11-08T10:50:25.965Z,48.53
2022-11-08T10:52:59.764Z,48.60
2022-11-08T10:55:33.393Z,48.45
2022-11-08T10:58:01.354Z,48.91
2022-11-08T11:00:33.136Z,48.40
2022-11-08T11:03:23.230Z,48.68
2022-11-08T11:05:59.910Z,47.67
2022-11-08T11:08:28.119Z,48.37
2022-11-08T11:11:23.591Z,47.75
2022-11-08T11:14:16.259Z,47.13
2022-11-08T11:16:57.426Z,48.13
2022-11-08T11:19:28.088Z,48.38
2022-11-08T11:22:03.638Z,48.24
2022-11-08T11:24:34.317Z,47.85
2022-11-08T11:27:16.276Z,47.35
2022-11-08T11:29:44.239Z,48.79
2022-11-08T11:32:24.667Z,48.63
2022-11-08T11:34:58.282Z,48.46
2022-11-08T11:37:39.209Z,48.01
2022-11-08T11:40:18.832Z,47.83
2022-11-08T11:43:01.810Z,48.35
2022-11-08T11:45:40.092Z,48.30
2022-11-08T11:48:17.276Z,47.44
2022-11-08T11:50:48.255Z,47.02
2022-11-08T11:53:22.882Z,48.20
2022-11-08T11:56:34.742Z,46.75
2022-11-08T11:59:45.350Z,46.95
2022-11-08T12:03:01.996Z,46.50
2022-11-08T12:05:49.225Z,46.59
2022-11-08T12:08:39.655Z,45.47
2022-11-08T12:11:44.289Z,46.30
2022-11-08T12:14:33.851Z,45.91
2022-11-08T12:17:21.067Z,45.97
2022-11-08T12:20:26.611Z,45.71
2022-11-08T12:23:29.122Z,45.85
2022-11-08T12:26:11.822Z,45.50
2022-11-08T12:29:06.678Z,46.03
2022-11-08T12:31:46.723Z,43.81
2022-11-08T12:34:22.938Z,44.42
2022-11-08T12:37:08.019Z,44.65
2022-11-08T12:39:47.012Z,44.17
2022-11-08T12:42:56.139Z,44.53
2022-11-08T12:45:56.224Z,45.60
2022-11-08T12:48:53.309Z,45.44
2022-11-08T12:51:36.667Z,45.24
2022-11-08T12:54:22.663Z,45.79
2022-11-08T12:56:53.876Z,46.08
2022-11-08T12:59:28.377Z,46.51
2022-11-08T13:02:00.709Z,46.65
2022-11-08T13:05:00.570Z,46.33
2022-11-08T13:07:41.528Z,47.33
2022-11-08T13:10:36.454Z,47.34
2022-11-08T13:13:22.906Z,46.78
2022-11-08T13:16:15.612Z,47.74
2022-11-08T13:18:49.959Z,47.69
2022-11-08T13:21:40.391Z,47.87
2022-11-08T13:24:50.303Z,48.40
2022-11-08T13:27:34.459Z,48.67
2022-11-08T13:30:38.553Z,48.83
2022-11-08T13:33:23.800Z,49.03
2022-11-08T13:36:13.847Z,49.34
2022-11-08T13:38:58.003Z,49.16
2022-11-08T13:41:26.680Z,49.33
2022-11-08T13:43:56.260Z,49.45
2022-11-08T13:46:48.367Z,49.99
2022-11-08T13:49:20.955Z,49.93
2022-11-08T13:51:49.243Z,50.10
2022-11-08T13:54:51.109Z,49.92
2022-11-08T13:57:54.909Z,50.64
2022-11-08T14:00:45.196Z,51.45
2022-11-08T14:03:54.251Z,50.53
2022-11-08T14:06:37.072Z,51.81
2022-11-08T14:09:22.889Z,51.25
2022-11-08T14:12:00.909Z,51.82
2022-11-08T14:14:40.346Z,52.25
2022-11-08T14:17:31.853Z,51.27
2022-11-08T14:20:32.421Z,51.53
2022-11-08T14:23:14.885Z,52.11
2022-11-08T14:25:47.116Z,51.96
2022-11-08T14:28:24.034Z,52.41
2022-11-08T14:30:52.552Z,51.87
2022-11-08T14:33:23.089Z,52.58
2022-11-08T14:35:58.627Z,53.08
2022-11-08T14:38:30.331Z,52.95
2022-11-08T14:41:01.612Z,52.61
2022-11-08T14:43:31.086Z,53.11
2022-11-08T14:46:10.234Z,53.02
2022-11-08T14:48:47.970Z,53.03
2022-11-08T14:51:15.840Z,53.53
2022-11-08T14:53:50.685Z,54.17
2022-11-08T14:56:22.592Z,54.15
2022-11-08T14:58:53.201Z,54.10
2022-11-08T15:01:25.521Z,54.81
2022-11-08T15:03:57.273Z,54.52
2022-11-08T15:06:31.587Z,54.64
2022-11-08T15:09:03.037Z,55.15
2022-11-08T15:11:34.355Z,54.94
2022-11-08T15:14:05.168Z,55.62
2022-11-08T15:16:46.733Z,56.24
2022-11-08T15:19:32.214Z,56.24
2022-11-08T15:22:02.964Z,55.80
2022-11-08T15:24:38.569Z,55.95
2022-11-08T15:27:16.699Z,56.53
2022-11-08T15:29:53.640Z,56.87
2022-11-08T15:32:22.870Z,56.93
2022-11-08T15:34:55.884Z,57.36
2022-11-08T15:37:34.256Z,57.13
2022-11-08T15:40:15.989Z,57.50
2022-11-08T15:42:46.339Z,57.88
2022-11-08T15:45:25.821Z,58.38
2022-11-08T15:48:01.628Z,58.65
2022-11-08T15:50:32.328Z,58.47
2022-11-08T15:53:03.347Z,58.66
2022-11-08T15:55:38.486Z,58.62
2022-11-08T15:58:15.872Z,59.38
2022-11-08T16:00:47.103Z,58.93
2022-11-08T16:03:15.490Z,59.54
2022-11-08T16:05:43.637Z,59.15
2022-11-08T16:08:15.616Z,59.39
2022-11-08T16:10:51.091Z,59.71
2022-11-08T16:13:24.710Z,59.88
2022-11-08T16:15:52.620Z,60.12
2022-11-08T16:18:21.216Z,60.10
2022-11-08T16:20:49.825Z,60.20
2022-11-08T16:23:17.750Z,59.28
2022-11-08T16:25:50.297Z,60.12
2022-11-08T16:28:24.506Z,60.04
2022-11-08T16:30:53.606Z,60.27
2022-11-08T16:33:23.655Z,60.03
2022-11-08T16:35:55.035Z,59.88
2022-11-08T16:38:27.526Z,60.10
2022-11-08T16:40:56.858Z,60.20
2022-11-08T16:43:24.725Z,60.71
2022-11-08T16:46:07.892Z,60.72
2022-11-08T16:48:39.888Z,60.90
2022-11-08T16:51:17.240Z,61.25
2022-11-08T16:53:45.827Z,61.47
2022-11-08T16:56:15.768Z,61.55
2022-11-08T16:58:44.054Z,61.55
2022-11-08T17:01:17.852Z,61.33
2022-11-08T17:03:45.758Z,61.41
2022-11-08T17:06:17.961Z,61.85
2022-11-08T17:08:46.440Z,62.16
2022-11-08T17:11:19.827Z,62.35
2022-11-08T17:13:48.980Z,62.21
2022-11-08T17:16:18.574Z,62.83
2022-11-08T17:18:52.186Z,63.01
2022-11-08T17:21:43.836Z,62.98
2022-11-08T17:24:10.121Z,62.89
2022-11-08T17:26:39.227Z,62.80
2022-11-08T17:29:08.044Z,62.50
2022-11-08T17:31:35.950Z,63.13
2022-11-08T17:34:03.743Z,63.49
2022-11-08T17:36:31.663Z,63.54
2022-11-08T17:38:59.536Z,63.71
2022-11-08T17:41:27.392Z,64.14
2022-11-08T17:43:56.495Z,64.17
2022-11-08T17:46:24.396Z,65.48
2022-11-08T17:48:52.278Z,65.62
2022-11-08T17:51:20.343Z,66.05
2022-11-08T17:53:48.835Z,66.28
2022-11-08T17:56:16.768Z,66.33
2022-11-08T17:58:44.774Z,66.70
2022-11-08T18:01:15.801Z,66.77
2022-11-08T18:03:43.839Z,67.46
2022-11-08T18:06:14.477Z,67.63
2022-11-08T18:08:42.983Z,68.28
2022-11-08T18:11:10.952Z,68.00
2022-11-08T18:13:38.699Z,68.36
2022-11-08T18:16:09.280Z,68.71
2022-11-08T18:18:39.042Z,69.05
2022-11-08T18:21:08.103Z,69.56
2022-11-08T18:23:36.287Z,69.28
2022-11-08T18:26:05.037Z,70.02
2022-11-08T18:28:32.831Z,69.95
2022-11-08T18:31:05.998Z,70.36
2022-11-08T18:33:35.254Z,70.05
2022-11-08T18:36:06.697Z,70.60
2022-11-08T18:38:41.973Z,70.58
2022-11-08T18:41:10.993Z,70.64
2022-11-08T18:43:39.319Z,70.37
2022-11-08T18:46:11.628Z,70.55
2022-11-08T18:48:39.406Z,70.67
2022-11-08T18:51:12.297Z,71.10
2022-11-08T18:53:41.132Z,70.85
2022-11-08T18:56:11.112Z,71.20
2022-11-08T18:58:39.639Z,70.87
2022-11-08T19:01:08.147Z,71.29
2022-11-08T19:03:36.029Z,71.35
2022-11-08T19:06:04.491Z,71.17
2022-11-08T19:08:34.238Z,71.39
2022-11-08T19:11:06.195Z,71.27
2022-11-08T19:13:35.980Z,71.40
2022-11-08T19:16:07.171Z,71.22
2022-11-08T19:18:35.775Z,71.55
2022-11-08T19:21:07.839Z,71.53
2022-11-08T19:23:38.363Z,71.91
2022-11-08T19:26:10.449Z,71.41
2022-11-08T19:28:40.767Z,72.19
2022-11-08T19:31:09.208Z,72.04
2022-11-08T19:33:37.201Z,71.75
2022-11-08T19:36:08.885Z,71.85
2022-11-08T19:38:39.959Z,72.65
2022-11-08T19:41:10.487Z,72.30
2022-11-08T19:43:40.969Z,72.36
2022-11-08T19:46:13.035Z,72.26
2022-11-08T19:48:43.894Z,72.42
2022-11-08T19:51:16.126Z,72.42
2022-11-08T19:53:45.631Z,72.58
2022-11-08T19:56:16.942Z,72.55
2022-11-08T19:58:45.160Z,73.23
2022-11-08T20:01:17.959Z,73.43
2022-11-08T20:03:47.314Z,72.96
2022-11-08T20:06:18.317Z,73.40
2022-11-08T20:08:50.150Z,72.90
2022-11-08T20:11:20.942Z,72.92
2022-11-08T20:13:49.266Z,73.03
2022-11-08T20:16:20.396Z,72.98
2022-11-08T20:18:48.452Z,73.76
2022-11-08T20:21:17.929Z,73.59
2022-11-08T20:23:47.459Z,73.34
2022-11-08T20:26:20.004Z,73.99
2022-11-08T20:28:56.262Z,73.44
2022-11-08T20:31:25.821Z,73.95
2022-11-08T20:33:54.230Z,74.14
2022-11-08T20:36:24.369Z,74.36
2022-11-08T20:38:56.379Z,74.37
2022-11-08T20:41:25.585Z,74.38
2022-11-08T20:43:53.436Z,74.11
2022-11-08T20:46:21.357Z,74.11
2022-11-08T20:48:51.130Z,74.91
2022-11-08T20:51:21.258Z,74.90
2022-11-08T20:53:49.399Z,75.09
2022-11-08T20:56:20.168Z,75.08
2022-11-08T20:58:51.382Z,75.49
2022-11-08T21:01:22.689Z,75.62
2022-11-08T21:03:52.319Z,76.26
2022-11-08T21:06:23.626Z,75.76
2022-11-08T21:09:07.035Z,76.08
2022-11-08T21:11:40.481Z,75.90
2022-11-08T21:14:09.653Z,76.49
2022-11-08T21:16:59.806Z,76.49
2022-11-08T21:19:26.621Z,76.83
2022-11-08T21:22:14.329Z,76.70
2022-11-08T21:24:43.711Z,76.99
2022-11-08T21:27:12.258Z,77.37
2022-11-08T21:29:41.579Z,77.89
2022-11-08T21:32:09.458Z,77.70
2022-11-08T21:34:37.313Z,77.89
2022-11-08T21:37:05.081Z,78.24
2022-11-08T21:39:32.822Z,78.19
2022-11-08T21:42:00.572Z,78.23
2022-11-08T21:44:28.343Z,77.71
2022-11-08T21:46:57.586Z,77.71
2022-11-08T21:49:25.490Z,78.09
2022-11-08T21:51:53.262Z,77.79
2022-11-08T21:54:21.410Z,78.70
2022-11-08T21:56:49.508Z,78.48
2022-11-08T21:59:17.282Z,78.32
2022-11-08T22:01:45.030Z,78.55
2022-11-08T22:04:14.182Z,78.22
2022-11-08T22:06:46.517Z,78.21
2022-11-08T22:09:15.660Z,78.21
2022-11-08T22:11:43.690Z,78.18
2022-11-08T22:14:12.199Z,77.24
2022-11-08T22:16:39.984Z,76.65
2022-11-08T22:19:08.451Z,76.19
2022-11-08T22:21:38.821Z,75.25
2022-11-08T22:24:08.912Z,74.97
2022-11-08T22:26:38.041Z,74.32
2022-11-08T22:29:06.761Z,74.30
2022-11-08T22:31:35.135Z,74.47
2022-11-08T22:34:03.847Z,74.31
2022-11-08T22:36:32.055Z,73.50
2022-11-08T22:39:01.552Z,73.77
2022-11-08T22:41:30.064Z,73.56
2022-11-08T22:43:58.517Z,73.33
2022-11-08T22:46:26.442Z,73.48
2022-11-08T22:48:54.925Z,73.40
2022-11-08T22:51:22.858Z,73.62
2022-11-08T22:53:50.596Z,73.95
2022-11-08T22:56:19.824Z,74.43
2022-11-08T22:58:47.890Z,74.08
2022-11-08T23:01:16.892Z,73.52
2022-11-08T23:03:45.909Z,72.87
2022-11-08T23:06:15.704Z,73.13
2022-11-08T23:08:45.870Z,73.33
2022-11-08T23:11:32.953Z,73.64
2022-11-08T23:14:21.675Z,73.19
2022-11-08T23:16:49.560Z,72.92
2022-11-08T23:19:40.096Z,73.38
2022-11-08T23:22:31.021Z,73.07
2022-11-08T23:24:59.037Z,73.32
2022-11-08T23:27:46.110Z,73.25
2022-11-08T23:30:36.385Z,73.52
2022-11-08T23:33:06.721Z,73.63
2022-11-08T23:35:34.846Z,73.85
2022-11-08T23:38:02.837Z,74.15
2022-11-08T23:40:49.124Z,72.97
2022-11-08T23:43:37.804Z,73.75
2022-11-08T23:46:10.653Z,73.35
2022-11-08T23:48:40.589Z,73.34
2022-11-08T23:51:08.583Z,73.12
2022-11-08T23:53:37.554Z,73.08
2022-11-08T23:56:06.686Z,73.40
2022-11-08T23:58:34.534Z,72.76
